createdAt,value
2022-12-09T04:50:33.032Z,-2.42
2022-12-09T10:55:07.382Z,1.40
2022-12-09T10:57:33.988Z,1.23
2022-12-09T11:00:20.777Z,1.40
2022-12-09T11:02:55.939Z,1.55
2022-12-09T11:05:25.213Z,1.65
2022-12-09T11:07:53.342Z,1.80
2022-12-09T11:10:25.072Z,1.76
2022-12-09T11:13:17.493Z,1.86
2022-12-09T11:15:49.829Z,1.90
2022-12-09T11:18:24.685Z,2.02
2022-12-09T11:21:00.902Z,2.01
2022-12-09T11:23:28.298Z,2.08
2022-12-09T11:26:06.896Z,2.19
2022-12-09T11:28:40.126Z,1.89
2022-12-09T11:31:33.785Z,1.59
2022-12-09T11:34:07.390Z,1.47
2022-12-09T11:36:40.628Z,1.11
2022-12-09T11:39:22.272Z,1.33
2022-12-09T11:42:16.567Z,1.47
2022-12-09T11:44:56.847Z,1.11
2022-12-09T11:47:36.475Z,0.88
2022-12-09T11:50:31.492Z,0.65
2022-12-09T11:53:11.589Z,0.86
2022-12-09T11:55:44.568Z,0.95
2022-12-09T11:58:15.963Z,0.66
2022-12-09T12:00:51.049Z,0.52
2022-12-09T12:03:30.338Z,0.81
2022-12-09T12:05:58.765Z,1.04
2022-12-09T12:08:43.548Z,1.21
2022-12-09T12:11:15.519Z,1.40
2022-12-09T12:13:49.507Z,1.47
2022-12-09T12:16:15.549Z,0.97
2022-12-09T12:18:58.408Z,0.92
2022-12-09T12:21:46.365Z,0.95
2022-12-09T12:24:24.688Z,1.11
2022-12-09T12:27:07.008Z,1.25
2022-12-09T12:29:35.845Z,1.36
2022-12-09T12:32:14.734Z,1.47
2022-12-09T12:34:59.523Z,1.33
2022-12-09T12:37:37.667Z,1.03
2022-12-09T12:40:48.894Z,0.87
2022-12-09T12:44:11.671Z,0.29
2022-12-09T12:46:57.854Z,0.22
2022-12-09T12:49:51.785Z,0.56
2022-12-09T12:52:56.101Z,0.87
2022-12-09T12:55:41.349Z,0.84
2022-12-09T12:58:46.160Z,0.57
2022-12-09T13:01:19.783Z,0.63
2022-12-09T13:03:56.520Z,0.82
2022-12-09T13:06:34.627Z,1.00
2022-12-09T13:09:06.112Z,1.01
2022-12-09T13:11:56.972Z,1.04
2022-12-09T13:14:32.169Z,1.10
2022-12-09T13:17:00.569Z,1.16
2022-12-09T13:19:42.922Z,1.22
2022-12-09T13:22:30.413Z,1.20
2022-12-09T13:25:24.481Z,1.12
2022-12-09T13:28:06.520Z,0.81
2022-12-09T13:30:54.408Z,0.57
2022-12-09T13:33:51.920Z,0.25
2022-12-09T13:36:35.922Z,0.26
2022-12-09T13:39:02.840Z,0.26
2022-12-09T13:41:28.906Z,-0.05
2022-12-09T13:44:07.279Z,-0.56
2022-12-09T13:46:34.014Z,-0.50
2022-12-09T13:49:10.346Z,-0.22
2022-12-09T13:51:51.739Z,-0.09
2022-12-09T13:54:20.489Z,0.03
2022-12-09T13:57:31.505Z,0.17
2022-12-09T14:00:04.909Z,0.16
2022-12-09T14:02:40.511Z,0.17
2022-12-09T14:05:06.686Z,-0.21
2022-12-09T14:07:42.711Z,-0.61
2022-12-09T14:10:36.608Z,-0.71
2022-12-09T14:13:04.507Z,-1.04
2022-12-09T14:15:30.576Z,-1.19
2022-12-09T14:18:05.716Z,-1.20
2022-12-09T14:20:35.625Z,-1.31
2022-12-09T14:23:06.805Z,-1.43
2022-12-09T14:25:33.807Z,-1.50
2022-12-09T14:28:11.975Z,-1.46
2022-12-09T14:30:54.506Z,-1.66
2022-12-09T14:33:45.616Z,-1.55
2022-12-09T14:36:14.695Z,-1.44
2022-12-09T14:39:23.113Z,-1.41
2022-12-09T14:41:59.156Z,-1.23
2022-12-09T14:44:59.743Z,-1.30
2022-12-09T14:47:32.985Z,-1.66
2022-12-09T14:50:12.384Z,-1.76
2022-12-09T14:53:00.533Z,-1.65
2022-12-09T14:55:29.119Z,-1.59
2022-12-09T14:57:58.329Z,-1.79
2022-12-09T15:00:27.708Z,-1.71
2022-12-09T15:03:30.246Z,-1.87
2022-12-09T15:05:40.762Z,-1.89
2022-12-09T15:08:06.989Z,-1.88
2022-12-09T15:10:36.374Z,-1.87
2022-12-09T15:13:03.014Z,-2.02
2022-12-09T15:15:34.597Z,-1.92
2022-12-09T15:18:17.492Z,-1.77
2022-12-09T15:20:49.862Z,-1.81
2022-12-09T15:23:20.799Z,-1.80
2022-12-09T15:25:56.037Z,-1.86
2022-12-09T15:28:26.795Z,-1.68
2022-12-09T15:31:03.322Z,-1.71
2022-12-09T15:33:32.406Z,-1.56
2022-12-09T15:36:07.632Z,-1.39
2022-12-09T15:38:53.081Z,-1.33
2022-12-09T15:41:39.400Z,-1.39
2022-12-09T15:44:13.467Z,-1.45
2022-12-09T15:46:42.494Z,-1.59
2022-12-09T15:49:12.826Z,-1.75
2022-12-09T15:51:41.765Z,-1.74
2022-12-09T15:54:14.927Z,-1.59
2022-12-09T15:57:07.428Z,-1.45
2022-12-09T15:59:36.638Z,-1.46
2022-12-09T16:02:03.201Z,-1.58
2022-12-09T16:04:35.319Z,-1.86
2022-12-09T16:07:09.474Z,-1.99
2022-12-09T16:09:36.432Z,-1.89
2022-12-09T16:12:02.676Z,-1.62
2022-12-09T16:14:42.897Z,-1.43
2022-12-09T16:17:28.759Z,-1.29
2022-12-09T16:19:54.789Z,-1.34
2022-12-09T16:22:29.975Z,-1.64
2022-12-09T16:25:14.492Z,-1.90
2022-12-09T16:27:48.670Z,-1.95
2022-12-09T16:30:19.843Z,-1.81
2022-12-09T16:32:53.965Z,-1.65
2022-12-09T16:35:39.608Z,-1.56
2022-12-09T16:38:09.394Z,-1.80
2022-12-09T16:40:44.677Z,-1.87
2022-12-09T16:43:17.002Z,-2.03
2022-12-09T16:45:45.564Z,-2.10
2022-12-09T16:48:13.189Z,-2.13
2022-12-09T16:50:43.913Z,-2.19
2022-12-09T16:53:15.341Z,-2.09
2022-12-09T16:55:52.676Z,-2.09
2022-12-09T16:58:18.897Z,-2.10
2022-12-09T17:00:45.686Z,-2.16
2022-12-09T17:03:37.561Z,-2.21
2022-12-09T17:06:05.002Z,-2.27
2022-12-09T17:08:32.242Z,-2.32
2022-12-09T17:11:02.006Z,-2.47
2022-12-09T17:13:28.307Z,-2.49
2022-12-09T17:15:58.527Z,-2.61
2022-12-09T17:18:29.242Z,-2.52
2022-12-09T17:21:03.636Z,-2.47
2022-12-09T17:23:32.359Z,-2.50
2022-12-09T17:26:04.882Z,-2.55
2022-12-09T17:28:31.724Z,-2.41
2022-12-09T17:30:58.599Z,-2.35
2022-12-09T17:33:26.306Z,-2.39
2022-12-09T17:35:52.979Z,-2.36
2022-12-09T17:38:19.744Z,-2.31
2022-12-09T17:40:45.921Z,-2.34
2022-12-09T17:43:13.005Z,-2.30
2022-12-09T17:45:42.248Z,-2.33
2022-12-09T17:48:08.714Z,-2.28
2022-12-09T17:50:37.833Z,-2.32
2022-12-09T17:53:03.965Z,-2.30
2022-12-09T17:55:30.098Z,-2.27
2022-12-09T17:57:57.288Z,-2.09
2022-12-09T18:00:23.448Z,-1.97
2022-12-09T18:02:49.579Z,-1.89
2022-12-09T18:05:15.730Z,-1.77
2022-12-09T18:07:41.931Z,-1.64
2022-12-09T18:10:08.499Z,-1.70
2022-12-09T18:12:34.814Z,-1.64
2022-12-09T18:15:00.924Z,-1.52
2022-12-09T18:17:27.060Z,-1.56
2022-12-09T18:19:54.467Z,-1.57
2022-12-09T18:22:20.584Z,-1.61
2022-12-09T18:24:46.698Z,-1.57
2022-12-09T18:27:12.825Z,-1.46
2022-12-09T18:29:41.581Z,-1.48
2022-12-09T18:32:08.177Z,-1.55
2022-12-09T18:34:35.720Z,-1.62
2022-12-09T18:37:03.216Z,-1.76
2022-12-09T18:39:29.474Z,-1.74
2022-12-09T18:41:55.664Z,-1.72
2022-12-09T18:44:21.777Z,-1.77
2022-12-09T18:46:50.505Z,-1.77
2022-12-09T18:49:22.251Z,-1.67
2022-12-09T18:51:49.750Z,-1.68
2022-12-09T18:54:19.702Z,-1.71
2022-12-09T18:56:45.953Z,-1.66
2022-12-09T18:59:12.579Z,-1.80
2022-12-09T19:01:41.888Z,-1.80
2022-12-09T19:04:29.252Z,-1.75
2022-12-09T19:06:58.075Z,-1.73
2022-12-09T19:09:31.922Z,-1.71
2022-12-09T19:12:11.341Z,-1.63
2022-12-09T19:14:44.528Z,-1.64
2022-12-09T19:17:10.643Z,-1.57
2022-12-09T19:19:36.831Z,-1.55
2022-12-09T19:22:03.803Z,-1.55
2022-12-09T19:24:31.828Z,-1.59
2022-12-09T19:26:58.396Z,-1.63
2022-12-09T19:29:25.801Z,-1.69
2022-12-09T19:31:52.761Z,-1.68
2022-12-09T19:34:26.551Z,-1.71
2022-12-09T19:36:54.349Z,-1.68
2022-12-09T19:39:22.421Z,-1.66
2022-12-09T19:41:48.663Z,-1.79
2022-12-09T19:44:31.030Z,-1.85
2022-12-09T19:47:03.301Z,-1.83
2022-12-09T19:49:29.609Z,-1.80
2022-12-09T19:51:55.869Z,-1.84
2022-12-09T19:54:28.079Z,-1.90
2022-12-09T19:56:54.774Z,-1.92
2022-12-09T19:59:20.889Z,-1.91
2022-12-09T20:01:47.098Z,-1.89
2022-12-09T20:04:46.999Z,-1.89
2022-12-09T20:07:06.405Z,-1.98
2022-12-09T20:09:33.875Z,-2.12
2022-12-09T20:12:00.008Z,-2.21
2022-12-09T20:14:26.139Z,-2.17
2022-12-09T20:16:52.253Z,-2.19
2022-12-09T20:19:19.796Z,-2.20
2022-12-09T20:21:45.932Z,-2.15
2022-12-09T20:24:12.052Z,-2.15
2022-12-09T20:26:38.634Z,-2.19
2022-12-09T20:29:07.505Z,-2.17
2022-12-09T20:31:35.939Z,-2.15
2022-12-09T20:34:05.080Z,-2.12
2022-12-09T20:36:33.760Z,-2.05
2022-12-09T20:39:04.870Z,-2.08
2022-12-09T20:41:31.002Z,-2.08
2022-12-09T20:43:59.447Z,-2.13
2022-12-09T20:46:28.790Z,-2.19
2022-12-09T20:48:55.748Z,-2.24
2022-12-09T20:51:31.745Z,-2.15
2022-12-09T20:53:58.927Z,-2.12
2022-12-09T20:56:26.532Z,-2.12
2022-12-09T20:58:53.809Z,-2.14
2022-12-09T21:01:22.778Z,-2.20
2022-12-09T21:03:49.609Z,-2.26
2022-12-09T21:06:17.654Z,-2.30
2022-12-09T21:08:44.681Z,-2.24
2022-12-09T21:11:16.834Z,-2.25
2022-12-09T21:13:45.581Z,-2.27
2022-12-09T21:16:16.106Z,-2.31
2022-12-09T21:18:43.289Z,-2.21
2022-12-09T21:21:09.457Z,-2.12
2022-12-09T21:23:36.501Z,-2.05
2022-12-09T21:26:07.782Z,-2.00
2022-12-09T21:28:34.846Z,-2.03
2022-12-09T21:31:15.399Z,-2.09
2022-12-09T21:33:43.120Z,-2.18
2022-12-09T21:36:15.373Z,-2.15
2022-12-09T21:38:41.953Z,-2.22
2022-12-09T21:41:11.422Z,-2.22
2022-12-09T21:43:38.342Z,-2.02
2022-12-09T21:46:06.410Z,-1.91
2022-12-09T21:48:32.814Z,-1.85
2022-12-09T21:51:00.312Z,-1.92
2022-12-09T21:53:26.493Z,-2.01
2022-12-09T21:55:53.454Z,-2.08
2022-12-09T21:58:19.866Z,-2.11
2022-12-09T22:00:46.255Z,-2.14
2022-12-09T22:03:12.680Z,-2.15
2022-12-09T22:05:38.996Z,-2.15
2022-12-09T22:08:05.318Z,-2.26
2022-12-09T22:10:31.476Z,-2.40
2022-12-09T22:12:58.262Z,-2.39
2022-12-09T22:15:25.424Z,-2.46
2022-12-09T22:17:52.063Z,-2.47
2022-12-09T22:23:04.421Z,-2.64
2022-12-09T22:25:30.547Z,-2.66
2022-12-09T22:27:57.393Z,-2.64
2022-12-09T22:30:23.524Z,-2.61
2022-12-09T22:32:51.062Z,-2.60
2022-12-09T22:35:17.406Z,-2.64
2022-12-09T22:37:44.788Z,-2.63
2022-12-09T22:40:11.644Z,-2.60
2022-12-09T22:42:37.770Z,-2.53
2022-12-09T22:45:05.749Z,-2.52
2022-12-09T22:47:32.000Z,-2.49
2022-12-09T22:49:58.147Z,-2.56
2022-12-09T22:52:24.264Z,-2.55
2022-12-09T22:54:50.713Z,-2.51
2022-12-09T22:57:16.875Z,-2.62
2022-12-09T22:59:43.309Z,-2.58
2022-12-09T23:02:09.566Z,-2.70
2022-12-09T23:04:36.504Z,-2.68
2022-12-09T23:07:02.924Z,-2.71
2022-12-09T23:09:29.235Z,-2.73
2022-12-09T23:11:55.353Z,-2.77
2022-12-09T23:14:22.561Z,-2.73
2022-12-09T23:16:48.729Z,-2.71
2022-12-09T23:19:16.261Z,-2.70
2022-12-09T23:21:43.295Z,-2.69
2022-12-09T23:24:18.440Z,-2.65
2022-12-09T23:26:48.871Z,-2.67
2022-12-09T23:29:16.071Z,-2.64
2022-12-09T23:31:42.565Z,-2.60
2022-12-09T23:34:09.292Z,-2.58
2022-12-09T23:36:38.476Z,-2.48
2022-12-09T23:39:09.903Z,-2.41
2022-12-09T23:41:36.379Z,-2.45
2022-12-09T23:44:02.656Z,-2.40
2022-12-09T23:46:29.829Z,-2.38
2022-12-09T23:48:56.769Z,-2.40
2022-12-09T23:51:25.421Z,-2.48
2022-12-09T23:53:54.041Z,-2.46
2022-12-09T23:56:22.636Z,-2.49
2022-12-09T23:58:53.962Z,-2.54
